Time;durP1;ratioP1;P1;durP2;ratioP2;P2;SDS_P1;SDS_P2;PMS_P1;PMS_P2;Temp;Humidity;BMP_temperature;BMP_pressure;BME280_temperature;BME280_humidity;BME280_pressure;Samples;Min_cycle;Max_cycle;Signal;HPM_P1;HPM_P2
2021/03/19 00:00:56;;;;;;;102.10;26.87;;;;;;;0.95;100.00;100298.68;1748642;82;21084;-90
2021/03/19 00:03:25;;;;;;;76.30;22.55;;;;;;;0.93;100.00;100296.16;1730257;82;21088;-89
2021/03/19 00:05:54;;;;;;;67.85;22.17;;;;;;;0.93;100.00;100296.16;1710717;83;21600;-90
2021/03/19 00:08:23;;;;;;;71.10;21.57;;;;;;;0.93;100.00;100288.47;1710645;83;21373;-90
2021/03/19 00:10:52;;;;;;;65.32;23.85;;;;;;;0.94;100.00;100289.31;1710620;82;21470;-91
2021/03/19 00:13:22;;;;;;;91.20;25.80;;;;;;;0.94;100.00;100289.31;1710578;83;21188;-91
2021/03/19 00:15:51;;;;;;;73.97;23.62;;;;;;;0.93;100.00;100286.36;1710525;82;21152;-90
2021/03/19 00:18:20;;;;;;;68.35;23.35;;;;;;;0.93;100.00;100286.36;1710749;83;21156;-90
2021/03/19 00:20:51;;;;;;;107.22;26.25;;;;;;;0.92;100.00;100284.69;1726067;81;21648;-90
2021/03/19 00:23:26;;;;;;;109.97;26.27;;;;;;;0.93;100.00;100285.08;1756706;81;21666;-90
2021/03/19 00:25:54;;;;;;;102.15;26.37;;;;;;;0.93;100.00;100278.67;1748436;82;21572;-90
2021/03/19 00:28:24;;;;;;;71.45;24.18;;;;;;;0.94;100.00;100285.47;1756781;81;21173;-91
2021/03/19 00:30:52;;;;;;;67.53;23.45;;;;;;;0.94;100.00;100285.01;1756668;80;21169;-90
2021/03/19 00:33:21;;;;;;;82.78;25.70;;;;;;;0.93;100.00;100284.62;1748407;82;21487;-90
2021/03/19 00:36:17;;;;;;;96.78;24.75;;;;;;;0.92;100.00;100288.08;1756641;81;21583;-90
2021/03/19 00:38:52;;;;;;;71.47;22.40;;;;;;;0.91;100.00;100287.72;1748382;81;21070;-90
2021/03/19 00:41:20;;;;;;;88.00;26.48;;;;;;;0.91;100.00;100289.00;1756694;80;21448;-91
2021/03/19 00:44:18;;;;;;;85.80;25.12;;;;;;;0.89;100.00;100284.37;1748394;82;21124;-90
2021/03/19 00:46:48;;;;;;;101.58;26.35;;;;;;;0.89;100.00;100284.80;1748460;81;22237;-90
2021/03/19 00:49:17;;;;;;;79.65;24.98;;;;;;;0.89;100.00;100288.22;1756635;81;21064;-91
2021/03/19 00:51:46;;;;;;;71.97;21.93;;;;;;;0.89;100.00;100289.50;1748391;82;21153;-90
2021/03/19 00:54:14;;;;;;;64.85;21.70;;;;;;;0.88;100.00;100289.57;1756755;81;21585;-90
2021/03/19 00:56:44;;;;;;;104.65;26.65;;;;;;;0.87;100.00;100289.18;1748425;82;21592;-90
2021/03/19 00:59:12;;;;;;;77.35;24.95;;;;;;;0.87;100.00;100290.00;1748475;82;21221;-90
2021/03/19 01:01:40;;;;;;;92.25;27.35;;;;;;;0.87;100.00;100286.61;1748510;81;21260;-90
2021/03/19 01:04:13;;;;;;;78.30;24.00;;;;;;;0.86;100.00;100289.61;1763670;80;21175;-90
2021/03/19 01:06:41;;;;;;;93.85;27.07;;;;;;;0.85;100.00;100287.94;1773921;80;21168;-90
2021/03/19 01:09:38;;;;;;;114.85;28.80;;;;;;;0.83;100.00;100280.78;1773876;80;21238;-90
2021/03/19 01:12:13;;;;;;;101.87;26.65;;;;;;;0.83;100.00;100284.63;1774254;80;21271;-90
2021/03/19 01:14:44;;;;;;;116.30;27.15;;;;;;;0.82;100.00;100279.53;1774132;80;21124;-90
2021/03/19 01:17:13;;;;;;;;;;;;;;;0.81;100.00;100282.98;1776810;80;21123;-90
2021/03/19 01:19:41;;;;;;;83.52;23.92;;;;;;;0.81;100.00;100284.27;1774095;80;20493;-90
2021/03/19 01:22:13;;;;;;;76.15;24.50;;;;;;;0.79;100.00;100288.19;1774063;80;21238;-90
2021/03/19 01:24:41;;;;;;;110.10;26.77;;;;;;;0.77;100.00;100288.26;1774189;80;21383;-89
2021/03/19 01:27:09;;;;;;;106.83;27.07;;;;;;;0.76;100.00;100295.55;1774238;80;21214;-89
2021/03/19 01:29:37;;;;;;;84.72;25.02;;;;;;;0.75;100.00;100287.94;1774074;80;21191;-89
2021/03/19 01:32:06;;;;;;;110.88;27.73;;;;;;;0.73;100.00;100291.82;1771936;80;21592;-89
2021/03/19 01:34:37;;;;;;;94.50;25.12;;;;;;;0.72;100.00;100291.89;1741687;82;21170;-90
2021/03/19 01:37:08;;;;;;;68.95;23.90;;;;;;;0.72;100.00;100296.55;1759816;80;21356;-90
2021/03/19 01:39:36;;;;;;;95.92;26.10;;;;;;;0.72;100.00;100293.17;1744549;82;21195;-90
2021/03/19 01:42:05;;;;;;;79.37;24.67;;;;;;;0.71;100.00;100299.19;1720573;83;21124;-89
2021/03/19 01:44:39;;;;;;;119.55;28.85;;;;;;;0.71;100.00;100303.89;1720496;83;21084;-89
2021/03/19 01:48:04;;;;;;;83.72;25.08;;;;;;;0.68;100.00;100298.05;1716909;83;22071;-90
2021/03/19 01:51:28;;;;;;;118.10;27.58;;;;;;;0.68;100.00;100300.61;1741638;81;21366;-90
2021/03/19 01:54:56;;;;;;;82.08;25.70;;;;;;;0.68;100.00;100296.77;1741662;82;21087;-89
2021/03/19 01:58:20;;;;;;;83.12;24.05;;;;;;;0.66;100.00;100298.55;1741489;81;21222;-89
2021/03/19 02:01:44;;;;;;;122.00;28.75;;;;;;;0.64;100.00;100303.73;1741634;81;21131;-89
2021/03/19 02:05:09;;;;;;;100.30;28.45;;;;;;;0.62;100.00;100307.63;1755428;80;21166;-90
2021/03/19 02:08:31;;;;;;;88.65;25.32;;;;;;;0.60;100.00;100313.24;1752684;81;21387;-89
2021/03/19 02:11:56;;;;;;;135.03;29.57;;;;;;;0.58;100.00;100315.48;1710160;83;21144;-91
2021/03/19 02:15:22;;;;;;;115.88;29.05;;;;;;;0.56;100.00;100321.95;1758157;80;21607;-91
2021/03/19 02:18:47;;;;;;;101.65;28.83;;;;;;;0.54;100.00;100322.45;1750360;80;21702;-90
2021/03/19 02:22:13;;;;;;;115.92;30.52;;;;;;;0.51;100.00;100325.16;1750429;80;21128;-89
2021/03/19 02:25:38;;;;;;;107.00;28.32;;;;;;;0.50;100.00;100325.19;1758424;80;21375;-89
2021/03/19 02:29:02;;;;;;;93.78;28.42;;;;;;;0.49;100.00;100329.49;1750389;80;21144;-91
2021/03/19 02:32:01;;;;;;;92.42;28.83;;;;;;;0.50;100.00;100330.31;1758381;81;21498;-91
2021/03/19 02:34:57;;;;;;;130.50;32.13;;;;;;;0.49;100.00;100332.05;1753367;81;21072;-91
2021/03/19 02:37:29;;;;;;;76.20;27.42;;;;;;;0.49;100.00;100332.48;1689683;84;21328;-92
2021/03/19 02:40:22;;;;;;;78.80;26.97;;;;;;;0.54;100.00;100326.76;1889288;76;20945;-89
2021/03/19 02:42:51;;;;;;;79.75;27.93;;;;;;;0.50;100.00;100331.59;1860140;77;21136;-90
2021/03/19 02:45:46;;;;;;;102.42;29.40;;;;;;;0.50;100.00;100336.29;1860263;77;21703;-90
2021/03/19 02:48:15;;;;;;;101.25;30.48;;;;;;;0.49;100.00;100335.89;1860103;77;21120;-89
2021/03/19 02:50:51;;;;;;;95.22;30.77;;;;;;;0.50;100.00;100338.00;1860244;77;20966;-89
2021/03/19 02:53:29;;;;;;;103.58;29.85;;;;;;;0.48;100.00;100346.21;1860093;77;21545;-89
2021/03/19 02:56:03;;;;;;;81.15;27.85;;;;;;;0.45;100.00;100344.58;1855784;77;21144;-89
2021/03/19 02:58:31;;;;;;;76.75;28.10;;;;;;;0.44;100.00;100346.77;1828408;77;21370;-91
2021/03/19 03:01:01;;;;;;;73.20;26.82;;;;;;;0.42;100.00;100348.55;1860069;77;21195;-91
2021/03/19 03:03:29;;;;;;;89.70;28.62;;;;;;;0.40;100.00;100350.33;1859989;77;21402;-90
2021/03/19 03:06:02;;;;;;;79.12;27.50;;;;;;;0.40;100.00;100361.39;1860032;77;21128;-90
2021/03/19 03:08:32;;;;;;;77.12;27.02;;;;;;;0.38;100.00;100364.91;1860196;77;21104;-90
2021/03/19 03:11:03;;;;;;;94.00;27.87;;;;;;;0.36;100.00;100360.31;1860233;77;21186;-90
2021/03/19 03:13:32;;;;;;;72.58;27.13;;;;;;;0.33;100.00;100365.53;1860007;77;21742;-90
2021/03/19 03:16:02;;;;;;;81.92;26.55;;;;;;;0.31;100.00;100363.86;1860012;77;21144;-90
2021/03/19 03:18:30;;;;;;;90.83;28.50;;;;;;;0.29;100.00;100368.66;1860137;77;21168;-90
2021/03/19 03:21:01;;;;;;;71.82;25.02;;;;;;;0.26;100.00;100364.48;1860012;77;21631;-90
2021/03/19 03:23:29;;;;;;;69.67;25.47;;;;;;;0.25;100.00;100364.09;1860271;77;21188;-90
2021/03/19 03:25:59;;;;;;;68.12;24.43;;;;;;;0.23;100.00;100366.32;1860085;77;21125;-90
2021/03/19 03:28:30;;;;;;;81.17;25.48;;;;;;;0.22;100.00;100368.03;1860085;77;21149;-91
2021/03/19 03:30:59;;;;;;;84.83;27.40;;;;;;;0.21;100.00;100370.20;1860109;77;21104;-90
2021/03/19 03:33:27;;;;;;;84.60;26.30;;;;;;;0.23;100.00;100372.72;1860011;77;21453;-90
2021/03/19 03:35:56;;;;;;;74.65;24.52;;;;;;;0.24;100.00;100375.22;1859221;77;21184;-90
2021/03/19 03:38:27;;;;;;;75.15;24.98;;;;;;;0.25;100.00;100378.18;1851950;77;21156;-90
2021/03/19 03:41:14;;;;;;;70.03;23.90;;;;;;;0.25;100.00;100385.86;1860037;77;21113;-91
2021/03/19 03:44:13;;;;;;;68.30;22.90;;;;;;;0.25;100.00;100383.30;1840479;77;21615;-89
2021/03/19 03:46:48;;;;;;;85.10;26.25;;;;;;;0.25;100.00;100387.14;1750877;80;21607;-89
2021/03/19 03:49:18;;;;;;;55.70;23.50;;;;;;;0.25;100.00;100392.27;1770969;81;21936;-90
2021/03/19 03:51:46;;;;;;;75.32;25.20;;;;;;;0.25;100.00;100397.39;1773439;79;21127;-90
2021/03/19 03:54:16;;;;;;;69.77;23.35;;;;;;;0.25;100.00;100400.38;1802026;79;21118;-90
2021/03/19 03:57:18;;;;;;;67.22;21.97;;;;;;;0.25;100.00;100399.95;1802080;79;21122;-90
2021/03/19 03:59:46;;;;;;;73.87;23.12;;;;;;;0.26;100.00;100405.89;1802090;79;21127;-89
2021/03/19 04:02:19;;;;;;;74.03;20.70;;;;;;;0.26;100.00;100410.59;1795419;79;22275;-89
2021/03/19 04:04:51;;;;;;;79.95;22.13;;;;;;;0.27;100.00;100408.42;1791726;79;21582;-90
2021/03/19 04:07:20;;;;;;;;;;;;;;;0.27;100.00;100413.97;1795044;79;21142;-90
2021/03/19 04:09:51;;;;;;;84.58;24.63;;;;;;;0.29;100.00;100418.60;1770427;81;20227;-90
2021/03/19 04:12:19;;;;;;;61.23;21.50;;;;;;;0.26;100.00;100418.27;1792024;79;21450;-90
2021/03/19 04:14:48;;;;;;;78.65;23.25;;;;;;;0.27;100.00;100418.67;1802126;79;21593;-90
2021/03/19 04:17:32;;;;;;;82.47;23.30;;;;;;;0.28;100.00;100420.31;1800465;79;21154;-89
2021/03/19 04:20:01;;;;;;;72.70;22.50;;;;;;;0.29;100.00;100431.41;1798381;79;21162;-91
2021/03/19 04:22:29;;;;;;;73.87;23.22;;;;;;;0.28;100.00;100425.89;1779594;79;21195;-90
2021/03/19 04:24:57;;;;;;;90.87;24.55;;;;;;;0.28;100.00;100430.55;1776115;79;21177;-90
2021/03/19 04:27:31;;;;;;;56.60;18.95;;;;;;;0.27;100.00;100432.75;1802166;79;21364;-90
2021/03/19 04:30:01;;;;;;;72.37;20.55;;;;;;;0.29;100.00;100437.81;1802064;79;21575;-91
2021/03/19 04:32:58;;;;;;;78.52;22.05;;;;;;;0.28;100.00;100438.70;1802157;79;21118;-91
2021/03/19 04:35:27;;;;;;;70.15;23.32;;;;;;;0.26;100.00;100436.20;1780652;79;21170;-91
2021/03/19 04:38:00;;;;;;;65.90;21.27;;;;;;;0.27;100.00;100440.44;1802396;79;21529;-89
2021/03/19 04:40:29;;;;;;;46.30;18.67;;;;;;;0.29;100.00;100442.48;1790163;79;21455;-86
2021/03/19 04:42:59;;;;;;;45.10;19.15;;;;;;;0.30;100.00;100443.33;1779665;78;21162;-86
2021/03/19 04:45:27;;;;;;;55.60;19.92;;;;;;;0.30;100.00;100447.17;1782083;80;21598;-86
2021/03/19 04:47:57;;;;;;;79.12;21.62;;;;;;;0.29;100.00;100447.60;1791651;80;21734;-86
2021/03/19 04:50:33;;;;;;;55.25;18.45;;;;;;;0.28;100.00;100450.23;1791860;80;21120;-88
2021/03/19 04:53:02;;;;;;;64.72;22.13;;;;;;;0.29;100.00;100460.41;1792025;80;21366;-88
2021/03/19 04:55:31;;;;;;;59.63;19.82;;;;;;;0.41;100.00;100462.16;1792080;80;21568;-89
2021/03/19 04:58:00;;;;;;;65.45;21.45;;;;;;;0.58;100.00;100456.00;1791974;79;21166;-86
2021/03/19 05:00:29;;;;;;;78.52;21.45;;;;;;;0.70;100.00;100457.70;1772663;80;21278;-86
2021/03/19 05:02:58;;;;;;;55.63;18.60;;;;;;;0.76;100.00;100458.79;1791047;78;21148;-86
2021/03/19 05:05:30;;;;;;;68.05;21.30;;;;;;;0.70;100.00;100461.55;1773960;80;22138;-85
2021/03/19 05:08:03;;;;;;;62.90;20.05;;;;;;;0.60;100.00;100464.44;1791687;80;21714;-86
2021/03/19 05:10:35;;;;;;;62.85;19.60;;;;;;;0.56;100.00;100466.73;1791770;80;21111;-86
2021/03/19 05:13:06;;;;;;;72.37;19.65;;;;;;;0.60;100.00;100472.59;1791687;80;21186;-86
2021/03/19 05:15:38;;;;;;;60.38;20.27;;;;;;;0.59;100.00;100470.91;1791664;80;21466;-86
2021/03/19 05:18:07;;;;;;;51.55;18.70;;;;;;;0.56;100.00;100470.58;1791644;80;21251;-86
2021/03/19 05:20:35;;;;;;;65.90;19.77;;;;;;;0.55;100.00;100475.31;1780946;80;21186;-86
2021/03/19 05:23:21;;;;;;;64.32;18.73;;;;;;;0.54;100.00;100471.53;1760465;81;21559;-87
2021/03/19 05:25:51;;;;;;;70.55;21.25;;;;;;;0.54;100.00;100476.20;1764739;80;21194;-85
2021/03/19 05:28:20;;;;;;;60.70;20.17;;;;;;;0.67;100.00;100473.22;1774325;80;21731;-85
2021/03/19 05:30:53;;;;;;;63.65;21.12;;;;;;;0.75;100.00;100476.34;1760511;81;21281;-86
2021/03/19 05:33:25;;;;;;;83.20;20.70;;;;;;;0.78;100.00;100474.92;1760494;81;21198;-88
2021/03/19 05:36:24;;;;;;;60.48;19.25;;;;;;;0.74;100.00;100476.77;1760839;81;21147;-90
2021/03/19 05:38:53;;;;;;;64.62;19.82;;;;;;;0.73;100.00;100478.94;1761296;81;21203;-88
2021/03/19 05:41:31;;;;;;;59.25;19.90;;;;;;;0.87;100.00;100486.12;1770428;81;21126;-89
2021/03/19 05:44:19;;;;;;;67.27;20.45;;;;;;;0.99;100.00;100486.58;1770444;81;21328;-88
2021/03/19 05:50:28;;;;;;;52.45;19.10;;;;;;;1.04;100.00;100492.36;1775144;79;21158;-89
2021/03/19 05:52:56;;;;;;;61.02;19.77;;;;;;;1.06;100.00;100489.30;1767468;81;21131;-90
2021/03/19 05:55:32;;;;;;;57.43;17.73;;;;;;;1.07;100.00;100487.95;1765338;79;21577;-89
2021/03/19 05:58:02;;;;;;;80.53;21.05;;;;;;;1.09;100.00;100494.30;1794800;79;22147;-89
2021/03/19 06:00:31;;;;;;;73.00;19.20;;;;;;;1.17;100.00;100489.72;1802090;79;21159;-91
2021/03/19 06:02:59;;;;;;;58.33;18.35;;;;;;;1.28;100.00;100493.61;1802105;79;21210;-86
2021/03/19 06:05:30;;;;;;;66.45;20.70;;;;;;;1.38;100.00;100496.22;1802017;79;21377;-88
2021/03/19 06:08:06;;;;;;;61.53;20.17;;;;;;;1.39;100.00;100494.87;1802260;79;21749;-91
2021/03/19 06:10:40;;;;;;;58.05;19.87;;;;;;;1.38;100.00;100494.48;1797971;79;21200;-89
2021/03/19 06:13:26;;;;;;;60.78;20.08;;;;;;;1.41;100.00;100497.36;1802299;79;21186;-89
2021/03/19 06:16:22;;;;;;;68.35;21.33;;;;;;;1.41;100.00;100505.06;1769980;79;21168;-88
2021/03/19 06:19:02;;;;;;;59.58;19.52;;;;;;;1.39;100.00;100502.56;1795762;79;21213;-87
2021/03/19 06:21:36;;;;;;;61.98;20.30;;;;;;;1.46;100.00;100516.00;1782349;79;21170;-86
2021/03/19 06:24:27;;;;;;;77.17;21.33;;;;;;;1.54;100.00;100525.53;1801880;79;22242;-87
2021/03/19 06:27:19;;;;;;;55.43;20.02;;;;;;;1.56;100.00;100520.33;1801920;79;21066;-87
2021/03/19 06:29:54;;;;;;;51.85;18.85;;;;;;;1.55;100.00;100523.35;1801771;79;21099;-87
2021/03/19 06:32:31;;;;;;;71.47;20.10;;;;;;;1.58;100.00;100525.78;1793099;79;21174;-87
2021/03/19 06:35:20;;;;;;;68.25;19.80;;;;;;;1.63;100.00;100523.50;1784127;79;21598;-87
2021/03/19 06:37:52;;;;;;;47.00;18.62;;;;;;;1.64;100.00;100527.28;1783657;79;21344;-87
2021/03/19 06:40:38;;;;;;;75.08;20.57;;;;;;;1.68;100.00;100526.25;1801659;79;21143;-86
2021/03/19 06:43:23;;;;;;;71.00;21.00;;;;;;;1.72;100.00;100525.25;1800236;79;21749;-86
2021/03/19 06:46:18;;;;;;;66.22;19.52;;;;;;;1.75;100.00;100526.84;1798510;79;21178;-87
2021/03/19 06:48:57;;;;;;;72.42;21.15;;;;;;;1.72;100.00;100523.96;1773084;78;21075;-88
2021/03/19 06:51:38;;;;;;;70.62;21.15;;;;;;;1.71;100.00;100529.17;1781390;79;22138;-87
2021/03/19 06:54:15;;;;;;;94.60;22.50;;;;;;;1.74;100.00;100526.45;1797351;79;21202;-86
2021/03/19 06:57:07;;;;;;;51.55;18.23;;;;;;;1.75;100.00;100529.88;1788949;79;21226;-87
2021/03/19 06:59:56;;;;;;;78.35;22.98;;;;;;;1.79;100.00;100522.42;1786314;79;21171;-88
2021/03/19 07:02:47;;;;;;;74.77;20.65;;;;;;;1.87;100.00;100522.52;1790725;78;21143;-88
2021/03/19 07:05:49;;;;;;;56.95;18.57;;;;;;;1.96;100.00;100526.44;1787791;78;21131;-86
2021/03/19 07:08:51;;;;;;;68.60;20.97;;;;;;;2.03;100.00;100524.47;1787906;79;21114;-87
2021/03/19 07:11:54;;;;;;;72.30;22.02;;;;;;;2.04;100.00;100525.68;1782551;79;21166;-86
2021/03/19 07:14:58;;;;;;;56.37;18.42;;;;;;;2.08;100.00;100531.53;1777622;79;21139;-87
2021/03/19 07:17:53;;;;;;;51.37;17.10;;;;;;;2.17;100.00;100536.30;1797244;79;21110;-87
2021/03/19 07:21:17;;;;;;;60.92;18.30;;;;;;;2.32;100.00;100536.55;1801674;79;21370;-86
2021/03/19 07:24:09;;;;;;;68.05;20.23;;;;;;;2.43;100.00;100537.38;1787465;79;21213;-86
2021/03/19 07:26:49;;;;;;;49.38;18.10;;;;;;;2.47;100.00;100533.33;1749576;78;21169;-87
2021/03/19 07:29:53;;;;;;;70.65;20.27;;;;;;;2.52;100.00;100530.56;1794985;78;21136;-86
2021/03/19 07:33:13;;;;;;;58.13;17.77;;;;;;;2.56;100.00;100533.41;1791889;78;21547;-86
2021/03/19 07:36:02;;;;;;;61.53;18.90;;;;;;;2.61;100.00;100544.74;1786860;80;21434;-86
2021/03/19 07:38:58;;;;;;;55.17;16.97;;;;;;;2.69;100.00;100541.39;1810741;78;21160;-86
2021/03/19 07:41:40;;;;;;;67.82;19.02;;;;;;;2.76;100.00;100546.68;1807608;77;21164;-86
2021/03/19 07:44:43;;;;;;;55.90;18.32;;;;;;;2.83;100.00;100555.80;1707060;81;21246;-86
2021/03/19 07:47:49;;;;;;;64.17;19.37;;;;;;;2.87;100.00;100553.07;1755215;81;21115;-86
2021/03/19 07:50:56;;;;;;;54.42;19.85;;;;;;;2.90;100.00;100551.66;1781735;79;21599;-87
2021/03/19 07:53:46;;;;;;;62.00;19.50;;;;;;;2.95;100.00;100560.00;1784270;80;21120;-87
2021/03/19 07:56:56;;;;;;;44.88;17.90;;;;;;;3.06;100.00;100560.38;1783157;79;21112;-87
2021/03/19 07:59:40;;;;;;;67.17;20.05;;;;;;;3.09;100.00;100571.80;1799172;79;21052;-86
2021/03/19 08:02:38;;;;;;;56.80;18.52;;;;;;;3.15;100.00;100571.98;1784950;80;21150;-87
2021/03/19 08:05:23;;;;;;;62.80;20.17;;;;;;;3.19;100.00;100575.25;1785049;79;21372;-87
2021/03/19 08:08:11;;;;;;;57.88;20.35;;;;;;;3.21;100.00;100574.73;1784898;80;21166;-87
2021/03/19 08:11:13;;;;;;;46.05;16.90;;;;;;;3.22;100.00;100573.83;1792224;79;21159;-87
2021/03/19 08:14:26;;;;;;;54.95;18.85;;;;;;;3.24;100.00;100577.19;1811546;79;21136;-87
2021/03/19 08:17:25;;;;;;;58.95;18.45;;;;;;;3.31;100.00;100582.44;1817167;79;21092;-87
2021/03/19 08:20:21;;;;;;;64.55;19.77;;;;;;;3.37;100.00;100583.44;1817025;78;21571;-87
2021/03/19 08:23:21;;;;;;;43.23;17.52;;;;;;;3.46;100.00;100584.74;1816961;78;21615;-88
2021/03/19 08:25:53;;;;;;;41.95;16.12;;;;;;;3.48;100.00;100587.62;1790532;79;21119;-87
2021/03/19 08:28:45;;;;;;;42.58;17.87;;;;;;;3.57;100.00;100585.53;1815294;78;21139;-87
2021/03/19 08:31:48;;;;;;;36.15;16.73;;;;;;;3.57;100.00;100587.67;1808348;79;21183;-86
2021/03/19 08:35:04;;;;;;;56.63;19.67;;;;;;;3.68;100.00;100582.48;1887833;76;22721;-85
2021/03/19 08:37:41;;;;;;;61.40;19.05;;;;;;;3.68;100.00;100588.92;1847967;77;21049;-88
2021/03/19 08:40:47;;;;;;;55.52;18.75;;;;;;;3.67;100.00;100587.25;1831118;77;21382;-86
2021/03/19 08:43:40;;;;;;;63.48;18.42;;;;;;;3.67;100.00;100582.09;1669348;84;21222;-86
2021/03/19 08:46:20;;;;;;;52.23;18.23;;;;;;;3.68;100.00;100587.16;1669197;86;21195;-87
2021/03/19 08:48:58;;;;;;;42.60;18.17;;;;;;;3.68;100.00;100591.03;1787327;79;21142;-87
2021/03/19 08:51:32;;;;;;;39.73;17.75;;;;;;;3.74;100.00;100590.73;1813473;79;21424;-88
2021/03/19 08:54:18;;;;;;;43.30;17.20;;;;;;;3.79;100.00;100597.81;1815748;78;22276;-86
2021/03/19 08:56:55;;;;;;;43.23;17.57;;;;;;;3.85;100.00;100594.55;1816960;78;21179;-87
2021/03/19 08:59:37;;;;;;;37.10;16.05;;;;;;;3.91;100.00;100600.70;1815737;79;21198;-87
2021/03/19 09:02:27;;;;;;;46.80;16.70;;;;;;;3.86;100.00;100595.77;1815621;79;21151;-87
2021/03/19 09:05:24;;;;;;;36.83;16.12;;;;;;;3.81;100.00;100602.88;1833752;77;21174;-87
2021/03/19 09:08:26;;;;;;;43.17;17.62;;;;;;;3.79;100.00;100601.67;1844411;77;21203;-87
2021/03/19 09:11:01;;;;;;;44.80;17.42;;;;;;;3.80;100.00;100603.78;1848886;77;21611;-87
2021/03/19 09:13:30;;;;;;;44.48;16.87;;;;;;;3.84;100.00;100599.32;1848755;77;21151;-87
2021/03/19 09:16:13;;;;;;;45.52;17.92;;;;;;;3.95;100.00;100609.50;1849033;77;21183;-88
2021/03/19 09:18:47;;;;;;;34.08;15.48;;;;;;;4.07;100.00;100602.92;1843977;77;21100;-87
2021/03/19 09:21:38;;;;;;;44.73;15.95;;;;;;;4.20;100.00;100604.45;1849264;77;22348;-87
2021/03/19 09:24:19;;;;;;;34.63;14.63;;;;;;;4.36;100.00;100600.69;1804185;77;21160;-87
2021/03/19 09:26:57;;;;;;;31.65;14.30;;;;;;;4.41;100.00;100612.03;1817268;78;21120;-86
2021/03/19 09:29:35;;;;;;;50.83;17.40;;;;;;;4.41;100.00;100612.03;1784803;79;21100;-87
2021/03/19 09:32:37;;;;;;;49.77;17.80;;;;;;;4.44;100.00;100608.03;1809851;79;21580;-86
2021/03/19 09:35:34;;;;;;;45.67;16.02;;;;;;;4.56;100.00;100607.88;1809996;78;22182;-87
2021/03/19 09:38:30;;;;;;;46.60;16.45;;;;;;;4.83;100.00;100611.27;1809622;79;21148;-87
2021/03/19 09:41:07;;;;;;;42.85;16.35;;;;;;;5.08;100.00;100604.84;1809713;79;21147;-87
2021/03/19 09:43:49;;;;;;;52.58;16.48;;;;;;;5.31;100.00;100605.75;1780496;79;21124;-86
2021/03/19 09:46:26;;;;;;;47.45;14.95;;;;;;;5.40;100.00;100601.02;1809534;79;21642;-86
2021/03/19 09:49:08;;;;;;;42.88;13.83;;;;;;;5.36;100.00;100600.34;1805690;79;21442;-86
2021/03/19 09:51:46;;;;;;;39.33;14.38;;;;;;;5.35;100.00;100597.39;1809060;79;21155;-86
2021/03/19 09:54:29;;;;;;;44.53;14.10;;;;;;;5.33;100.00;100603.08;1808972;78;21567;-88
2021/03/19 09:57:25;;;;;;;45.48;14.55;;;;;;;5.36;100.00;100607.63;1825759;77;21143;-85
2021/03/19 10:07:25;;;;;;;38.10;12.80;;;;;;;5.04;100.00;100605.47;1848686;77;21131;-85
2021/03/19 10:13:49;;;;;;;31.75;10.50;;;;;;;4.82;100.00;100612.17;1809943;78;21150;-88
2021/03/19 10:16:24;;;;;;;33.35;11.00;;;;;;;4.89;100.00;100605.32;1777509;80;21076;-87
2021/03/19 10:18:53;;;;;;;31.95;10.60;;;;;;;4.92;100.00;100599.19;1777497;80;21577;-87
2021/03/19 10:21:25;;;;;;;33.60;10.55;;;;;;;4.94;100.00;100596.05;1791313;79;21124;-86
2021/03/19 10:24:01;;;;;;;28.17;9.63;;;;;;;4.94;100.00;100596.05;1786925;79;21075;-88
2021/03/19 10:26:44;;;;;;;46.13;10.08;;;;;;;5.04;100.00;100599.83;1787214;79;21191;-84
2021/03/19 10:29:41;;;;;;;37.80;10.15;;;;;;;5.15;100.00;100599.27;1794926;79;21160;-86
2021/03/19 10:32:18;;;;;;;38.95;9.83;;;;;;;5.29;99.17;100597.25;1809458;79;21369;-85
2021/03/19 10:35:07;;;;;;;22.10;8.63;;;;;;;5.51;95.88;100609.00;1790022;78;21182;-86
2021/03/19 10:37:46;;;;;;;23.98;8.43;;;;;;;5.56;92.42;100621.23;1785949;80;21075;-86
2021/03/19 10:40:24;;;;;;;34.45;11.00;;;;;;;5.58;92.55;100612.91;1792437;78;21632;-86
2021/03/19 10:46:59;;;;;;;37.73;9.38;;;;;;;5.64;92.26;100607.44;1790648;78;21547;-85
2021/03/19 10:49:54;;;;;;;35.00;8.53;;;;;;;5.74;94.08;100600.45;1796536;78;21164;-86
2021/03/19 10:56:56;;;;;;;40.80;10.13;;;;;;;5.97;81.32;100602.59;1786178;80;21175;-86
2021/03/19 11:06:57;;;;;;;50.50;9.88;;;;;;;5.80;77.41;100598.84;1788666;78;21500;-85
2021/03/19 11:09:31;;;;;;;30.23;9.00;;;;;;;5.74;77.25;100599.16;1808410;78;21091;-85
2021/03/19 11:12:07;;;;;;;29.10;9.50;;;;;;;5.71;80.66;100613.08;1788749;79;21104;-87
2021/03/19 11:14:58;;;;;;;28.70;8.98;;;;;;;5.68;77.19;100608.92;1784566;80;21159;-87
2021/03/19 11:17:27;;;;;;;38.30;9.85;;;;;;;5.63;77.87;100615.25;1787736;80;22234;-85
2021/03/19 11:20:13;;;;;;;36.73;9.78;;;;;;;5.68;77.11;100606.81;1764695;80;21456;-85
2021/03/19 11:22:46;;;;;;;34.95;9.75;;;;;;;5.80;82.31;100602.72;1779671;80;21119;-86
2021/03/19 11:25:25;;;;;;;42.60;10.45;;;;;;;5.98;82.77;100606.84;1786238;80;21150;-86
2021/03/19 11:27:54;;;;;;;33.60;9.15;;;;;;;6.05;78.03;100610.44;1786003;80;21106;-86
2021/03/19 11:30:34;;;;;;;40.15;9.73;;;;;;;6.06;76.09;100606.91;1760189;80;21373;-85
2021/03/19 11:40:23;;;;;;;22.22;8.43;;;;;;;5.97;79.39;100604.36;1757073;80;21861;-85
2021/03/19 11:42:55;;;;;;;51.18;10.75;;;;;;;6.12;81.99;100607.40;1756248;81;21139;-86
2021/03/19 11:45:57;;;;;;;58.35;10.58;;;;;;;6.18;76.30;100605.38;1756947;81;22122;-86
2021/03/19 11:48:38;;;;;;;41.80;10.18;;;;;;;6.08;71.28;100598.61;1760240;80;21167;-85
2021/03/19 11:51:34;;;;;;;38.70;9.95;;;;;;;5.92;71.21;100597.33;1767094;81;21115;-85
2021/03/19 11:59:11;;;;;;;34.65;9.75;;;;;;;5.90;76.17;100598.69;1742145;81;21182;-87
2021/03/19 12:05:49;;;;;;;34.90;9.20;;;;;;;5.89;73.50;100598.31;1718289;82;21130;-86
2021/03/19 12:08:35;;;;;;;39.85;9.53;;;;;;;5.92;76.43;100603.31;1739352;81;21563;-86
2021/03/19 12:11:12;;;;;;;38.17;9.93;;;;;;;5.87;79.67;100609.22;1772430;81;21198;-86
2021/03/19 12:14:05;;;;;;;36.28;8.78;;;;;;;5.78;79.84;100605.37;1766784;81;21620;-86
2021/03/19 12:16:36;;;;;;;52.65;9.70;;;;;;;5.73;72.82;100607.86;1772491;81;21583;-87
2021/03/19 12:19:06;;;;;;;43.58;10.15;;;;;;;5.72;70.38;100603.60;1772452;81;21123;-87
2021/03/19 12:25:10;;;;;;;44.38;10.90;;;;;;;5.84;76.82;100608.08;1764104;81;21166;-87
2021/03/19 12:27:38;;;;;;;48.15;9.58;;;;;;;5.88;76.52;100615.20;1772485;81;21112;-87
2021/03/19 12:30:08;;;;;;;53.73;10.18;;;;;;;5.75;73.28;100617.19;1755568;81;21353;-87
2021/03/19 12:32:37;;;;;;;43.10;10.50;;;;;;;5.61;72.29;100620.52;1752272;81;21143;-87
2021/03/19 12:35:09;;;;;;;25.40;8.88;;;;;;;5.49;74.59;100625.03;1757456;80;21138;-87
2021/03/19 12:37:41;;;;;;;48.63;9.83;;;;;;;5.44;75.29;100627.03;1779777;79;21160;-87
2021/03/19 12:40:10;;;;;;;43.52;10.03;;;;;;;5.45;77.49;100630.00;1782671;79;21173;-87
2021/03/19 12:42:40;;;;;;;45.35;10.13;;;;;;;5.48;75.88;100625.50;1781900;79;21192;-87
2021/03/19 12:45:19;;;;;;;39.18;9.95;;;;;;;5.53;77.45;100626.55;1805536;79;21184;-87
2021/03/19 12:47:51;;;;;;;33.60;9.43;;;;;;;5.61;75.00;100627.44;1798788;79;21559;-87
2021/03/19 12:50:22;;;;;;;38.78;9.55;;;;;;;5.63;76.20;100634.19;1789892;79;21150;-87
2021/03/19 12:52:51;;;;;;;55.05;11.55;;;;;;;5.63;75.34;100631.61;1793745;79;21193;-89
2021/03/19 12:55:26;;;;;;;38.85;10.72;;;;;;;5.61;73.46;100633.43;1786297;78;21366;-87
2021/03/19 12:57:57;;;;;;;29.80;9.35;;;;;;;5.58;71.87;100637.45;1801229;78;21158;-86
2021/03/19 13:00:33;;;;;;;42.20;9.60;;;;;;;5.63;75.21;100638.50;1791203;79;21465;-86
2021/03/19 13:03:34;;;;;;;24.63;8.75;;;;;;;5.73;79.12;100640.97;1799664;79;21116;-86
2021/03/19 13:06:07;;;;;;;42.97;10.03;;;;;;;5.88;79.60;100646.22;1795492;79;21123;-86